Time;durP1;ratioP1;P1;durP2;ratioP2;P2;SDS_P1;SDS_P2;PMS_P1;PMS_P2;Temp;Humidity;BMP_temperature;BMP_pressure;BME280_temperature;BME280_humidity;BME280_pressure;Samples;Min_cycle;Max_cycle;Signal;HPM_P1;HPM_P2
2022/12/21 00:01:13;;;;;;;35.95;17.10;;;7.50;99.90;;;;;;5022450;28;20088;-75
2022/12/21 00:03:42;;;;;;;40.17;17.98;;;7.40;99.90;;;;;;5007225;28;20041;-75
2022/12/21 00:06:08;;;;;;;37.55;16.55;;;7.40;99.90;;;;;;4996559;28;20523;-74
2022/12/21 00:08:42;;;;;;;38.45;17.42;;;7.40;99.90;;;;;;5004963;28;20053;-76
2022/12/21 00:11:09;;;;;;;36.90;18.13;;;9.90;99.90;;;;;;5005253;28;20099;-76
2022/12/21 00:13:34;;;;;;;43.50;18.17;;;7.50;99.90;;;;;;4996459;28;20042;-74
2022/12/21 00:16:06;;;;;;;43.10;19.05;;;7.40;99.90;;;;;;5021671;28;20598;-76
2022/12/21 00:18:36;;;;;;;46.92;18.73;;;7.40;99.90;;;;;;5005948;28;20033;-76
2022/12/21 00:21:09;;;;;;;42.20;18.40;;;7.40;99.90;;;;;;5022449;28;20056;-74
2022/12/21 00:23:35;;;;;;;41.25;18.50;;;7.40;99.90;;;;;;5022784;28;20037;-75
2022/12/21 00:26:03;;;;;;;59.63;18.90;;;7.40;99.90;;;;;;5008177;28;20037;-73
2022/12/21 00:28:30;;;;;;;42.17;17.38;;;7.40;99.90;;;;;;5003461;28;20877;-74
2022/12/21 00:31:03;;;;;;;57.28;18.10;;;7.40;99.90;;;;;;5020011;28;20068;-75
2022/12/21 00:33:28;;;;;;;;;;;7.40;99.90;;;;;;5006287;28;20120;-75
2022/12/21 00:35:58;;;;;;;90.40;18.95;;;7.40;99.90;;;;;;5022628;28;19999;-75
2022/12/21 00:38:24;;;;;;;38.50;16.70;;;7.30;99.90;;;;;;5007898;28;20045;-73
2022/12/21 00:40:59;;;;;;;58.88;17.08;;;7.30;99.90;;;;;;4992011;28;20636;-75
2022/12/21 00:43:25;;;;;;;39.95;18.05;;;7.30;99.90;;;;;;5026508;28;20049;-75
2022/12/21 00:46:01;;;;;;;55.42;18.60;;;7.30;99.90;;;;;;5025036;28;20102;-75
2022/12/21 00:48:28;;;;;;;61.45;17.92;;;7.30;99.90;;;;;;5023920;28;20040;-75
2022/12/21 00:50:54;;;;;;;176.02;22.38;;;7.40;99.90;;;;;;5025210;28;20037;-74
2022/12/21 00:53:20;;;;;;;51.30;18.40;;;7.30;99.90;;;;;;5025728;28;20533;-74
2022/12/21 00:55:57;;;;;;;80.47;18.40;;;7.40;99.90;;;;;;5007673;28;20499;-74
2022/12/21 00:58:24;;;;;;;55.08;18.02;;;7.30;99.90;;;;;;5039790;28;20410;-74
2022/12/21 01:00:52;;;;;;;60.17;17.15;;;7.30;99.90;;;;;;5008282;28;20045;-74
2022/12/21 01:03:17;;;;;;;45.35;17.38;;;7.40;99.90;;;;;;5008776;28;20036;-75
2022/12/21 01:05:47;;;;;;;63.95;18.15;;;7.30;99.90;;;;;;5023767;28;20122;-73
2022/12/21 01:08:14;;;;;;;60.97;18.67;;;7.30;99.90;;;;;;5024886;28;20040;-74
2022/12/21 01:10:39;;;;;;;39.08;17.10;;;7.30;99.90;;;;;;5022896;28;20127;-76
2022/12/21 01:13:05;;;;;;;57.13;18.38;;;7.30;99.90;;;;;;5008680;28;20752;-76
2022/12/21 01:15:31;;;;;;;38.35;16.27;;;7.40;99.90;;;;;;5023876;28;20093;-74
2022/12/21 01:17:57;;;;;;;73.88;18.75;;;7.30;99.90;;;;;;5006981;28;20042;-75
2022/12/21 01:20:23;;;;;;;53.30;17.27;;;7.30;99.90;;;;;;5023368;28;20032;-75
2022/12/21 01:22:49;;;;;;;49.20;16.85;;;7.50;99.90;;;;;;5007460;28;20534;-76
2022/12/21 01:25:14;;;;;;;48.95;16.38;;;7.20;99.90;;;;;;5009387;28;20134;-76
2022/12/21 01:27:40;;;;;;;141.52;21.05;;;7.20;99.90;;;;;;5008952;28;20128;-75
2022/12/21 01:30:09;;;;;;;45.20;15.95;;;7.40;99.90;;;;;;5008313;28;20044;-75
2022/12/21 01:32:37;;;;;;;34.50;15.38;;;7.20;99.90;;;;;;5021536;28;20506;-74
2022/12/21 01:35:03;;;;;;;45.25;14.88;;;7.20;99.90;;;;;;5025027;28;20045;-73
2022/12/21 01:37:37;;;;;;;38.03;14.75;;;7.20;99.90;;;;;;5024173;28;20430;-75
2022/12/21 01:40:03;;;;;;;43.33;14.73;;;7.20;99.90;;;;;;5025225;28;20048;-73
2022/12/21 01:42:29;;;;;;;34.45;14.70;;;7.10;99.90;;;;;;5021433;28;20101;-75
2022/12/21 01:45:00;;;;;;;47.13;14.93;;;7.10;99.90;;;;;;5008029;28;20461;-75
2022/12/21 01:47:36;;;;;;;49.60;14.80;;;7.10;99.90;;;;;;5008137;28;20071;-75
2022/12/21 01:50:25;;;;;;;75.47;15.18;;;7.10;99.90;;;;;;5022776;28;20041;-74
2022/12/21 01:52:53;;;;;;;33.05;13.38;;;7.10;99.90;;;;;;5009094;28;20045;-74
2022/12/21 01:55:19;;;;;;;45.10;15.35;;;7.10;99.90;;;;;;5008765;28;20049;-74
2022/12/21 01:57:45;;;;;;;39.17;14.27;;;7.10;99.90;;;;;;5026411;28;20037;-74
2022/12/21 02:00:11;;;;;;;38.70;13.73;;;7.00;99.90;;;;;;5026090;28;20032;-73
2022/12/21 02:02:47;;;;;;;42.50;15.10;;;7.00;99.90;;;;;;5027274;28;20062;-74
2022/12/21 02:05:15;;;;;;;30.88;13.15;;;7.00;99.90;;;;;;5025114;28;20053;-74
2022/12/21 02:07:43;;;;;;;39.65;13.80;;;7.20;99.90;;;;;;5025748;28;20037;-75
2022/12/21 02:10:09;;;;;;;39.65;13.77;;;7.00;99.90;;;;;;5011619;28;20068;-75
2022/12/21 02:12:36;;;;;;;29.33;12.93;;;6.90;99.90;;;;;;5027805;28;20053;-78
2022/12/21 02:15:02;;;;;;;49.70;14.18;;;6.90;99.90;;;;;;5042523;28;20040;-74
2022/12/21 02:17:46;;;;;;;45.10;13.30;;;7.00;99.90;;;;;;4993483;28;20041;-73
2022/12/21 02:20:33;;;;;;;41.65;12.75;;;6.90;99.90;;;;;;5027247;28;20045;-75
2022/12/21 02:23:32;;;;;;;35.60;12.38;;;6.90;99.90;;;;;;5025822;28;20122;-74
2022/12/21 02:26:27;;;;;;;52.88;13.32;;;6.90;99.90;;;;;;5009742;28;20045;-74
2022/12/21 02:29:15;;;;;;;48.35;12.70;;;6.90;99.90;;;;;;4993858;28;20095;-75
2022/12/21 02:32:13;;;;;;;42.67;13.45;;;6.90;99.90;;;;;;5027605;28;20052;-74
2022/12/21 02:34:54;;;;;;;55.05;14.05;;;6.90;99.90;;;;;;5026987;28;20120;-75
2022/12/21 02:37:33;;;;;;;43.53;13.05;;;6.80;99.90;;;;;;5027167;28;20087;-75
2022/12/21 02:40:17;;;;;;;42.10;12.63;;;6.80;99.90;;;;;;5010312;28;20045;-75
2022/12/21 02:45:57;;;;;;;56.20;13.38;;;7.40;99.90;;;;;;5020208;28;20051;-75
2022/12/21 02:48:30;;;;;;;43.95;12.32;;;6.80;99.90;;;;;;5044279;28;20068;-74
2022/12/21 02:51:02;;;;;;;52.67;11.73;;;6.80;99.90;;;;;;5025971;28;20055;-75
2022/12/21 02:53:38;;;;;;;40.83;11.23;;;6.80;99.90;;;;;;5026589;28;20125;-74
2022/12/21 02:56:04;;;;;;;46.92;11.98;;;6.70;99.90;;;;;;5009001;28;20041;-74
2022/12/21 02:58:30;;;;;;;73.30;13.10;;;6.80;99.90;;;;;;5026488;28;20052;-74
2022/12/21 03:01:45;;;;;;;154.55;16.20;;;6.70;99.90;;;;;;4995854;28;20040;-75
2022/12/21 03:04:31;;;;;;;52.83;12.80;;;6.70;99.90;;;;;;5009798;28;20071;-74
2022/12/21 03:07:41;;;;;;;41.60;12.45;;;6.70;99.90;;;;;;5014938;28;20411;-75
2022/12/21 03:10:15;;;;;;;78.30;13.20;;;6.70;99.90;;;;;;5027047;28;20040;-75
2022/12/21 03:13:09;;;;;;;87.97;12.68;;;6.70;99.90;;;;;;5010743;28;20041;-75
2022/12/21 03:15:46;;;;;;;44.70;11.77;;;6.70;99.90;;;;;;5010410;28;20051;-75
2022/12/21 03:18:24;;;;;;;41.95;11.45;;;6.70;99.90;;;;;;5025353;28;20044;-74
2022/12/21 03:20:57;;;;;;;36.90;11.32;;;6.70;99.90;;;;;;5008879;28;20095;-75
2022/12/21 03:23:51;;;;;;;48.58;11.75;;;6.60;99.90;;;;;;5009846;28;20052;-74
2022/12/21 03:26:27;;;;;;;37.55;11.15;;;6.70;99.90;;;;;;5025693;28;20099;-75
2022/12/21 03:28:54;;;;;;;32.55;11.05;;;6.60;99.90;;;;;;5024278;28;20056;-76
2022/12/21 03:31:24;;;;;;;47.92;11.82;;;6.60;99.90;;;;;;5022040;28;20705;-76
2022/12/21 03:34:24;;;;;;;43.95;11.32;;;6.60;99.90;;;;;;5011332;28;20036;-75
2022/12/21 03:37:01;;;;;;;91.43;13.50;;;6.60;99.90;;;;;;4955008;28;20107;-74
2022/12/21 03:39:28;;;;;;;38.20;10.63;;;6.60;99.90;;;;;;5018180;28;20048;-74
2022/12/21 03:42:05;;;;;;;28.80;10.18;;;6.60;99.90;;;;;;5009970;28;20099;-75
2022/12/21 03:44:42;;;;;;;37.33;11.10;;;6.60;99.90;;;;;;5027084;28;20150;-74
2022/12/21 03:47:16;;;;;;;60.33;11.20;;;6.50;99.90;;;;;;5024886;28;20513;-73
2022/12/21 03:49:47;;;;;;;37.08;10.40;;;6.50;99.90;;;;;;5025525;28;20534;-74
2022/12/21 03:52:17;;;;;;;49.75;10.13;;;6.50;99.90;;;;;;5043340;28;20064;-74
2022/12/21 03:54:51;;;;;;;39.95;9.25;;;6.40;99.90;;;;;;5042837;28;20048;-74
2022/12/21 03:57:19;;;;;;;29.50;9.00;;;6.40;99.90;;;;;;5042271;28;20045;-76
2022/12/21 03:59:49;;;;;;;38.90;9.07;;;6.40;99.90;;;;;;5024148;28;20037;-76
2022/12/21 04:02:41;;;;;;;52.67;10.10;;;6.40;99.90;;;;;;5009805;28;20029;-73
2022/12/21 04:05:12;;;;;;;33.33;8.18;;;6.30;99.90;;;;;;5025918;28;20033;-75
2022/12/21 04:07:40;;;;;;;78.88;10.70;;;6.30;99.90;;;;;;5022795;28;20075;-75
2022/12/21 04:10:14;;;;;;;31.90;8.77;;;6.30;99.90;;;;;;5023801;28;20053;-74
2022/12/21 04:12:41;;;;;;;29.85;8.15;;;6.30;99.90;;;;;;5024060;28;20048;-74
2022/12/21 04:15:14;;;;;;;24.73;7.93;;;6.30;99.90;;;;;;5025186;28;20514;-75
2022/12/21 04:17:41;;;;;;;35.28;8.00;;;6.30;99.90;;;;;;5025151;28;20052;-74
2022/12/21 04:20:10;;;;;;;24.02;7.90;;;6.30;99.90;;;;;;4993796;28;20367;-74
2022/12/21 04:28:15;;;;;;;53.85;9.23;;;6.30;99.90;;;;;;5024303;28;20052;-74
2022/12/21 04:30:43;;;;;;;43.83;9.10;;;6.30;99.90;;;;;;5024472;28;20077;-75
2022/12/21 04:33:11;;;;;;;37.85;8.98;;;6.30;99.90;;;;;;5026222;28;20571;-73
2022/12/21 04:37:30;;;;;;;41.30;9.88;;;6.30;99.90;;;;;;5023910;28;20507;-74
2022/12/21 04:38:27;;;;;;;31.02;9.93;;;6.30;99.90;;;;;;5023231;28;20112;-75
2022/12/21 04:40:57;;;;;;;47.13;10.30;;;6.30;99.90;;;;;;5022663;28;20045;-75
2022/12/21 04:43:23;;;;;;;152.60;15.10;;;7.50;99.90;;;;;;5023186;28;20037;-75
2022/12/21 04:45:58;;;;;;;105.85;11.88;;;6.30;99.90;;;;;;5023634;28;20509;-74
2022/12/21 04:48:23;;;;;;;46.92;8.93;;;6.50;99.90;;;;;;5008823;28;20506;-75
2022/12/21 04:50:49;;;;;;;34.40;9.38;;;6.30;99.90;;;;;;5023223;28;20044;-75
2022/12/21 04:53:15;;;;;;;55.38;9.15;;;6.30;99.90;;;;;;5024432;28;20513;-75
2022/12/21 04:55:45;;;;;;;45.67;9.13;;;6.30;99.90;;;;;;5009260;28;21560;-75
2022/12/21 04:58:13;;;;;;;41.83;8.73;;;6.40;99.90;;;;;;5025172;28;20048;-75
2022/12/21 05:00:39;;;;;;;86.15;9.88;;;6.30;99.90;;;;;;5023721;28;20049;-75
2022/12/21 05:03:05;;;;;;;40.75;8.00;;;6.40;99.90;;;;;;5007575;28;20038;-75
2022/12/21 05:05:30;;;;;;;52.60;9.02;;;6.30;99.90;;;;;;5008356;28;20032;-74
2022/12/21 05:07:56;;;;;;;36.28;8.30;;;6.30;99.90;;;;;;5023830;28;20522;-73
2022/12/21 05:10:22;;;;;;;34.97;8.32;;;6.30;99.90;;;;;;5008550;28;20048;-75
2022/12/21 05:12:48;;;;;;;44.75;8.48;;;6.30;99.90;;;;;;5002984;28;20042;-75
2022/12/21 05:15:16;;;;;;;41.85;8.88;;;6.30;99.90;;;;;;5022202;28;20040;-74
2022/12/21 05:17:42;;;;;;;136.07;13.60;;;6.30;99.90;;;;;;5008672;28;20045;-75
2022/12/21 05:20:08;;;;;;;27.30;7.88;;;6.30;99.90;;;;;;4999148;28;20044;-75
2022/12/21 05:22:34;;;;;;;41.83;9.00;;;6.30;99.90;;;;;;5023467;28;20029;-74
2022/12/21 05:25:00;;;;;;;62.10;9.38;;;6.30;99.90;;;;;;5010406;28;20195;-73
2022/12/21 05:27:26;;;;;;;47.22;8.98;;;6.30;99.90;;;;;;5017304;28;20129;-75
2022/12/21 05:29:51;;;;;;;31.13;8.25;;;6.30;99.90;;;;;;5022173;28;20119;-75
2022/12/21 05:32:17;;;;;;;37.78;7.97;;;6.30;99.90;;;;;;4989372;28;20072;-75
2022/12/21 05:34:45;;;;;;;67.93;9.95;;;6.30;99.90;;;;;;4995628;28;20505;-75
2022/12/21 05:37:11;;;;;;;33.15;8.48;;;6.40;99.90;;;;;;5047546;28;20055;-75
2022/12/21 05:39:37;;;;;;;54.33;10.13;;;6.30;99.90;;;;;;5067768;28;20049;-75
2022/12/21 05:42:03;;;;;;;37.55;9.02;;;6.30;99.90;;;;;;5033128;28;20550;-75
2022/12/21 05:44:29;;;;;;;86.28;11.45;;;6.30;99.90;;;;;;4993574;28;20435;-76
2022/12/21 05:46:55;;;;;;;31.98;8.25;;;6.30;99.90;;;;;;5043002;28;20056;-75
2022/12/21 05:49:21;;;;;;;37.97;8.32;;;6.30;99.90;;;;;;5021140;28;20214;-75
2022/12/21 05:51:48;;;;;;;49.35;9.45;;;6.30;99.90;;;;;;5054879;28;20223;-75
2022/12/21 05:54:16;;;;;;;37.35;8.80;;;6.30;99.90;;;;;;5018686;28;20037;-75
2022/12/21 05:56:42;;;;;;;35.40;8.23;;;6.30;99.90;;;;;;5032602;28;20041;-75
2022/12/21 05:59:08;;;;;;;69.45;10.18;;;6.20;99.90;;;;;;5018628;28;20473;-75
2022/12/21 06:01:35;;;;;;;46.65;9.77;;;6.20;99.90;;;;;;5037157;28;20054;-74
2022/12/21 06:04:00;;;;;;;33.17;8.95;;;6.20;99.90;;;;;;5014788;28;20037;-75
2022/12/21 06:06:26;;;;;;;52.15;9.52;;;6.20;99.90;;;;;;5034049;28;20037;-75
2022/12/21 06:08:52;;;;;;;29.20;8.55;;;6.20;99.90;;;;;;5014566;28;20112;-75
2022/12/21 06:11:20;;;;;;;34.33;9.70;;;6.20;99.90;;;;;;5041051;28;20482;-73
2022/12/21 06:13:47;;;;;;;50.25;9.90;;;6.20;99.90;;;;;;5049154;28;20048;-74
2022/12/21 06:16:16;;;;;;;35.83;9.63;;;6.10;99.90;;;;;;5031472;28;20079;-74
2022/12/21 06:18:42;;;;;;;57.33;10.35;;;6.20;99.90;;;;;;5034110;28;20433;-75
2022/12/21 06:21:09;;;;;;;29.98;8.98;;;6.20;99.90;;;;;;5031299;28;20037;-74
2022/12/21 06:23:36;;;;;;;33.45;9.52;;;6.20;99.90;;;;;;4999219;28;20044;-74
2022/12/21 06:26:05;;;;;;;35.58;10.20;;;6.20;99.90;;;;;;5011888;28;20195;-76
2022/12/21 06:28:32;;;;;;;35.75;9.63;;;6.30;99.90;;;;;;5032016;28;20431;-74
2022/12/21 06:31:09;;;;;;;104.55;12.68;;;6.20;99.90;;;;;;5041669;28;20119;-75
2022/12/21 06:33:35;;;;;;;36.90;10.25;;;6.20;99.90;;;;;;5026564;28;20068;-76
2022/12/21 06:36:01;;;;;;;36.25;9.48;;;6.20;99.90;;;;;;5017346;28;20045;-75
2022/12/21 06:38:27;;;;;;;37.83;9.85;;;6.20;99.90;;;;;;5034071;28;20048;-74
2022/12/21 06:40:58;;;;;;;46.10;11.23;;;6.20;99.90;;;;;;5033769;28;20192;-73
2022/12/21 06:43:30;;;;;;;36.60;9.75;;;6.20;99.90;;;;;;5017975;28;20093;-74
2022/12/21 06:46:04;;;;;;;32.30;10.25;;;6.50;99.90;;;;;;5047916;28;20040;-73
2022/12/21 06:48:32;;;;;;;46.17;10.95;;;6.20;99.90;;;;;;5020477;28;20277;-75
2022/12/21 06:50:59;;;;;;;87.47;12.75;;;6.20;99.90;;;;;;5017031;28;20505;-75
2022/12/21 06:53:29;;;;;;;64.43;11.63;;;6.20;99.90;;;;;;5018318;28;20048;-76
2022/12/21 06:56:06;;;;;;;43.53;11.23;;;6.20;99.90;;;;;;5033782;28;20037;-74
2022/12/21 06:58:33;;;;;;;110.38;13.63;;;6.20;99.90;;;;;;5050124;28;20116;-74
2022/12/21 07:01:07;;;;;;;44.00;10.77;;;6.20;99.90;;;;;;5031127;28;20044;-75
2022/12/21 07:03:33;;;;;;;37.38;11.05;;;6.20;99.90;;;;;;5048740;28;20037;-74
2022/12/21 07:06:00;;;;;;;33.55;10.93;;;6.20;99.90;;;;;;5013833;28;20145;-74
2022/12/21 07:08:25;;;;;;;71.43;12.85;;;6.60;99.90;;;;;;5017181;28;20034;-75
2022/12/21 07:11:21;;;;;;;97.45;14.18;;;6.20;99.90;;;;;;5016885;28;20055;-74
2022/12/21 07:13:54;;;;;;;43.45;12.38;;;6.30;99.90;;;;;;5037090;28;20051;-75
2022/12/21 07:16:21;;;;;;;97.10;14.23;;;6.30;99.90;;;;;;5052951;28;20510;-74
2022/12/21 07:18:47;;;;;;;93.35;15.73;;;6.30;99.90;;;;;;5043538;28;20158;-73
2022/12/21 07:21:15;;;;;;;39.80;12.38;;;6.20;99.90;;;;;;5032725;28;20502;-75
2022/12/21 07:23:42;;;;;;;80.53;14.90;;;6.30;99.90;;;;;;5049947;28;20048;-74
2022/12/21 07:26:11;;;;;;;49.83;12.60;;;6.20;99.90;;;;;;5032932;28;20048;-75
2022/12/21 07:28:37;;;;;;;50.55;13.23;;;6.20;99.90;;;;;;5032251;28;20045;-75
2022/12/21 07:31:05;;;;;;;59.38;13.80;;;6.20;99.90;;;;;;5016235;28;20041;-75
2022/12/21 07:33:31;;;;;;;66.28;14.88;;;6.20;99.90;;;;;;5031704;28;20055;-75
2022/12/21 07:36:01;;;;;;;49.83;14.27;;;6.40;99.90;;;;;;5016281;28;20051;-75
2022/12/21 07:38:28;;;;;;;66.75;15.43;;;6.30;99.90;;;;;;5000524;28;20047;-74
2022/12/21 07:41:06;;;;;;;49.25;15.10;;;6.30;99.90;;;;;;5027291;28;20056;-74
2022/12/21 07:43:32;;;;;;;58.78;15.20;;;6.30;99.90;;;;;;5032154;28;20028;-75
2022/12/21 07:46:02;;;;;;;44.83;14.30;;;6.60;99.90;;;;;;5016325;28;20624;-74
2022/12/21 07:48:29;;;;;;;64.25;15.90;;;6.30;99.90;;;;;;5016851;28;20041;-75
2022/12/21 07:50:55;;;;;;;87.13;18.55;;;6.30;99.90;;;;;;5049492;28;20128;-75
2022/12/21 07:53:21;;;;;;;56.13;16.27;;;6.60;99.90;;;;;;5049567;28;20040;-75
2022/12/21 07:55:49;;;;;;;52.30;16.73;;;6.30;99.90;;;;;;5049859;28;20039;-75
2022/12/21 07:58:15;;;;;;;52.20;16.92;;;6.30;99.90;;;;;;5048746;28;20116;-76
2022/12/21 08:00:40;;;;;;;50.70;16.45;;;6.30;99.90;;;;;;5044400;28;20124;-75
2022/12/21 08:03:07;;;;;;;56.17;17.05;;;6.30;99.90;;;;;;5030856;28;20375;-74
2022/12/21 08:05:33;;;;;;;53.20;16.85;;;6.30;99.90;;;;;;5019527;28;20056;-74
2022/12/21 08:08:02;;;;;;;45.58;16.63;;;6.30;99.90;;;;;;5032761;28;20067;-75
2022/12/21 08:10:28;;;;;;;58.53;17.63;;;6.30;99.90;;;;;;5014996;28;20107;-75
2022/12/21 08:12:54;;;;;;;80.38;18.70;;;6.30;99.90;;;;;;5020500;28;20045;-74
2022/12/21 08:15:21;;;;;;;51.65;17.52;;;6.30;99.90;;;;;;5012819;28;20118;-75
2022/12/21 08:17:48;;;;;;;64.43;18.77;;;6.40;99.90;;;;;;5026449;28;20037;-75
2022/12/21 08:20:16;;;;;;;56.70;17.52;;;6.40;99.90;;;;;;5022458;28;20037;-75
2022/12/21 08:22:42;;;;;;;74.00;18.50;;;6.40;99.90;;;;;;5015031;28;20033;-74
2022/12/21 08:25:11;;;;;;;80.65;20.40;;;6.40;99.90;;;;;;5014366;28;20582;-74
2022/12/21 08:27:37;;;;;;;188.00;24.58;;;7.70;99.90;;;;;;5016255;28;20037;-74
2022/12/21 08:30:04;;;;;;;54.05;19.25;;;6.70;99.90;;;;;;5015211;28;20041;-75
2022/12/21 08:32:30;;;;;;;104.38;21.02;;;6.50;99.90;;;;;;4997065;28;20045;-74
2022/12/21 08:34:56;;;;;;;75.40;20.02;;;6.50;99.90;;;;;;5030814;28;20094;-75
2022/12/21 08:37:22;;;;;;;74.15;19.80;;;6.50;99.90;;;;;;5014036;28;20061;-74
2022/12/21 08:39:48;;;;;;;73.85;20.10;;;6.50;99.90;;;;;;5014011;28;20110;-75
2022/12/21 08:42:14;;;;;;;61.85;19.98;;;6.50;99.90;;;;;;4998606;28;20483;-75
2022/12/21 08:44:39;;;;;;;141.98;22.95;;;6.50;99.90;;;;;;5014978;28;20048;-75
2022/12/21 08:47:06;;;;;;;90.00;21.30;;;6.50;99.90;;;;;;5012827;28;20041;-75
2022/12/21 08:49:33;;;;;;;103.45;22.88;;;6.50;99.90;;;;;;5031622;28;20048;-74
2022/12/21 08:51:58;;;;;;;119.00;24.67;;;6.50;99.90;;;;;;5035077;28;20497;-74
2022/12/21 08:54:25;;;;;;;67.22;21.17;;;6.60;99.90;;;;;;5035290;28;20066;-74
2022/12/21 08:56:51;;;;;;;72.25;21.33;;;6.60;99.90;;;;;;5030353;28;20041;-75
2022/12/21 08:59:16;;;;;;;77.65;21.23;;;6.60;99.90;;;;;;5014991;28;20043;-74
2022/12/21 09:01:42;;;;;;;81.15;21.70;;;7.00;99.90;;;;;;5031449;28;20114;-75
2022/12/21 09:04:11;;;;;;;89.35;21.50;;;6.70;99.90;;;;;;5013192;28;20131;-75
2022/12/21 09:06:37;;;;;;;94.20;24.10;;;7.80;99.90;;;;;;5011243;28;20503;-75
2022/12/21 09:09:02;;;;;;;67.75;21.63;;;6.70;99.90;;;;;;5012848;28;20051;-75
2022/12/21 09:11:28;;;;;;;65.90;21.73;;;8.10;99.90;;;;;;5000263;28;20521;-74
2022/12/21 09:13:54;;;;;;;68.10;22.35;;;6.80;99.90;;;;;;5017926;28;20414;-75
2022/12/21 09:16:22;;;;;;;77.80;22.83;;;6.80;99.90;;;;;;5040917;28;20045;-74
2022/12/21 09:18:49;;;;;;;78.60;21.65;;;6.80;99.90;;;;;;5044755;28;20398;-75
2022/12/21 09:21:17;;;;;;;67.80;22.60;;;6.80;99.90;;;;;;5053003;28;20048;-75
2022/12/21 09:23:43;;;;;;;68.80;20.58;;;7.00;99.90;;;;;;5031224;28;20054;-75
2022/12/21 09:26:09;;;;;;;72.88;21.33;;;6.90;99.90;;;;;;5022589;28;20045;-74
2022/12/21 09:28:36;;;;;;;67.47;22.70;;;6.90;99.90;;;;;;5034436;28;20106;-74
2022/12/21 09:31:17;;;;;;;67.35;21.80;;;7.10;99.90;;;;;;5018328;28;20179;-75
2022/12/21 09:33:43;;;;;;;75.00;23.13;;;7.00;99.90;;;;;;5035709;28;20041;-75
2022/12/21 09:36:11;;;;;;;69.95;21.80;;;7.00;99.90;;;;;;5017048;28;20060;-75
2022/12/21 09:38:37;;;;;;;72.35;21.13;;;7.00;99.90;;;;;;5034991;28;20120;-75
2022/12/21 09:41:05;;;;;;;60.47;20.60;;;7.00;99.90;;;;;;5033391;28;20125;-74
2022/12/21 09:43:44;;;;;;;56.05;20.65;;;7.00;99.90;;;;;;5053483;28;20445;-74
2022/12/21 09:46:13;;;;;;;56.47;20.50;;;7.00;99.90;;;;;;5030700;28;20112;-75
2022/12/21 09:48:54;;;;;;;60.67;20.10;;;7.00;99.90;;;;;;5035072;28;20072;-75
2022/12/21 09:51:23;;;;;;;55.70;20.25;;;7.00;99.90;;;;;;5033444;28;20510;-74
2022/12/21 09:54:13;;;;;;;60.63;21.20;;;7.00;99.90;;;;;;5018480;28;20048;-75
2022/12/21 09:56:47;;;;;;;60.60;21.48;;;7.00;99.90;;;;;;5005378;28;20056;-75
2022/12/21 09:59:17;;;;;;;54.15;19.27;;;7.20;99.90;;;;;;5034483;28;20064;-74
2022/12/21 10:02:05;;;;;;;52.75;20.65;;;7.00;99.90;;;;;;5033293;28;20067;-74
2022/12/21 10:04:49;;;;;;;62.90;21.98;;;7.00;99.90;;;;;;5041120;28;20540;-76
2022/12/21 10:07:30;;;;;;;54.75;20.60;;;6.90;99.90;;;;;;5054636;28;20036;-76
2022/12/21 10:10:13;;;;;;;54.03;19.88;;;7.10;99.90;;;;;;5042581;28;20037;-74
2022/12/21 10:12:58;;;;;;;;;;;7.10;99.90;;;;;;5031289;28;20037;-75
2022/12/21 10:15:37;;;;;;;52.20;19.55;;;7.10;99.90;;;;;;5047824;28;19955;-75
2022/12/21 10:18:06;;;;;;;56.70;20.60;;;7.20;99.90;;;;;;5055563;28;20116;-75
2022/12/21 10:20:57;;;;;;;60.08;21.98;;;7.20;99.90;;;;;;5034361;28;20483;-75
2022/12/21 10:23:28;;;;;;;56.30;20.45;;;7.20;99.90;;;;;;5036247;28;20490;-75
2022/12/21 10:25:59;;;;;;;55.13;20.92;;;7.20;99.90;;;;;;5030427;28;20045;-76
2022/12/21 10:28:34;;;;;;;54.92;21.02;;;7.20;99.90;;;;;;5018037;28;20107;-75
2022/12/21 10:31:08;;;;;;;58.72;22.02;;;7.20;99.90;;;;;;5041280;28;20056;-75
2022/12/21 10:33:46;;;;;;;57.55;21.65;;;7.30;99.90;;;;;;5034539;28;20040;-76
2022/12/21 10:36:18;;;;;;;60.13;22.60;;;7.50;99.90;;;;;;5025254;28;20070;-75
2022/12/21 10:38:44;;;;;;;60.15;21.77;;;7.30;99.90;;;;;;5048898;28;20053;-75
2022/12/21 10:41:23;;;;;;;59.15;20.92;;;8.60;99.90;;;;;;5033825;28;20502;-75
2022/12/21 10:43:52;;;;;;;57.13;21.50;;;7.30;99.90;;;;;;5034291;28;20043;-76
2022/12/21 10:46:21;;;;;;;58.20;21.27;;;7.40;99.90;;;;;;5028978;28;20467;-75
2022/12/21 10:48:51;;;;;;;50.40;21.48;;;7.40;99.90;;;;;;5036747;28;20049;-75
2022/12/21 10:51:27;;;;;;;54.22;22.38;;;7.40;99.90;;;;;;5050140;28;20538;-75
2022/12/21 10:54:06;;;;;;;47.90;20.88;;;7.40;99.90;;;;;;5039763;28;20220;-76
2022/12/21 10:56:36;;;;;;;51.30;20.75;;;7.40;99.90;;;;;;5029697;28;20049;-75
2022/12/21 10:59:14;;;;;;;46.00;21.83;;;7.60;99.90;;;;;;5013932;28;20045;-75
2022/12/21 11:01:39;;;;;;;50.47;21.65;;;7.40;99.90;;;;;;5029096;28;20041;-75
2022/12/21 11:04:31;;;;;;;45.70;20.10;;;7.40;99.90;;;;;;5008781;28;20045;-75
2022/12/21 11:07:24;;;;;;;48.80;20.15;;;7.50;99.90;;;;;;5010923;28;20065;-75
2022/12/21 11:10:00;;;;;;;;;;;7.50;99.90;;;;;;5033651;28;20068;-76
2022/12/21 11:12:26;;;;;;;42.40;17.70;;;7.50;99.90;;;;;;5051578;28;19917;-75
2022/12/21 11:14:54;;;;;;;38.63;17.48;;;7.40;99.90;;;;;;5023671;28;20077;-75
2022/12/21 11:17:31;;;;;;;39.08;17.92;;;7.40;99.90;;;;;;5009935;28;20048;-75
2022/12/21 11:20:13;;;;;;;43.33;18.15;;;7.40;99.90;;;;;;5011904;28;20048;-75
2022/12/21 11:22:42;;;;;;;43.33;17.75;;;7.40;99.90;;;;;;5029882;28;20041;-75
2022/12/21 11:25:18;;;;;;;38.67;17.60;;;7.40;99.90;;;;;;5025017;28;20044;-74
2022/12/21 11:27:46;;;;;;;41.05;17.48;;;7.40;99.90;;;;;;5028117;28;20049;-74
2022/12/21 11:30:18;;;;;;;40.92;18.17;;;7.40;99.90;;;;;;5028262;28;20076;-74
2022/12/21 11:32:46;;;;;;;41.43;17.70;;;7.40;99.90;;;;;;5012307;28;20053;-76
2022/12/21 11:35:29;;;;;;;40.17;17.23;;;7.40;99.90;;;;;;5029534;28;20095;-74
2022/12/21 11:38:02;;;;;;;42.60;17.52;;;7.50;99.90;;;;;;5029391;28;20067;-75
2022/12/21 11:40:29;;;;;;;43.22;17.63;;;7.70;99.90;;;;;;5009650;28;20052;-75
2022/12/21 11:42:55;;;;;;;41.78;17.70;;;7.60;99.90;;;;;;5013325;28;20041;-75
2022/12/21 11:45:25;;;;;;;40.10;16.98;;;7.70;99.90;;;;;;5023862;28;20057;-73
2022/12/21 11:48:03;;;;;;;44.05;17.63;;;7.70;99.90;;;;;;5024601;28;20041;-76
2022/12/21 11:50:55;;;;;;;45.38;17.80;;;7.80;99.90;;;;;;5026748;28;20048;-76
2022/12/21 11:53:33;;;;;;;42.45;16.33;;;7.80;99.90;;;;;;5004719;28;20084;-75
2022/12/21 11:56:17;;;;;;;40.53;16.85;;;7.90;99.90;;;;;;5006614;28;20045;-74
2022/12/21 11:58:56;;;;;;;42.30;18.52;;;7.90;99.90;;;;;;5030696;28;20435;-75
2022/12/21 12:01:36;;;;;;;43.55;17.25;;;7.90;99.90;;;;;;5026775;28;20043;-76
2022/12/21 12:04:26;;;;;;;42.17;16.67;;;8.00;99.90;;;;;;5028537;28;20116;-75
2022/12/21 12:07:05;;;;;;;44.97;17.35;;;8.00;99.90;;;;;;5036870;28;20494;-75
2022/12/21 12:09:37;;;;;;;40.30;16.60;;;8.00;99.90;;;;;;5025078;28;20083;-75
2022/12/21 12:12:37;;;;;;;39.58;17.42;;;8.00;99.90;;;;;;5025509;28;20503;-74
2022/12/21 12:15:21;;;;;;;44.67;16.83;;;8.10;99.90;;;;;;5028966;28;20514;-75
2022/12/21 12:17:59;;;;;;;40.38;15.48;;;8.10;99.90;;;;;;5028456;28;20048;-74
2022/12/21 12:20:49;;;;;;;38.92;16.15;;;8.10;99.90;;;;;;5027291;28;20526;-76
2022/12/21 12:23:41;;;;;;;34.38;15.27;;;8.20;99.90;;;;;;5028612;28;20432;-75
2022/12/21 12:26:26;;;;;;;38.85;15.05;;;8.20;99.90;;;;;;5026101;28;20318;-76
2022/12/21 12:29:19;;;;;;;35.63;13.50;;;8.20;99.90;;;;;;5039211;28;20091;-76
2022/12/21 12:32:23;;;;;;;35.10;14.25;;;8.30;99.90;;;;;;5019515;28;20046;-74
2022/12/21 12:34:59;;;;;;;38.17;14.23;;;8.30;99.90;;;;;;5019548;28;20045;-76
2022/12/21 12:37:53;;;;;;;35.53;13.48;;;8.30;99.90;;;;;;5043469;28;20069;-75
2022/12/21 12:40:48;;;;;;;32.63;13.10;;;8.30;99.90;;;;;;5051546;28;20076;-74
2022/12/21 12:43:14;;;;;;;27.88;12.60;;;8.40;99.90;;;;;;5048992;28;20037;-75
2022/12/21 12:46:10;;;;;;;29.98;12.45;;;8.30;99.90;;;;;;5040878;28;20041;-75
2022/12/21 12:48:47;;;;;;;32.10;11.98;;;8.40;99.90;;;;;;5047465;28;20399;-75
2022/12/21 12:51:56;;;;;;;31.92;12.80;;;8.40;99.90;;;;;;5023188;28;20056;-74
2022/12/21 12:54:41;;;;;;;28.65;12.48;;;8.40;99.90;;;;;;4966763;28;20217;-74
2022/12/21 12:57:24;;;;;;;32.60;12.98;;;8.50;99.90;;;;;;5043322;28;20407;-75
2022/12/21 13:00:08;;;;;;;32.65;12.65;;;8.50;99.90;;;;;;5031743;28;20037;-74
2022/12/21 13:02:49;;;;;;;33.63;12.50;;;8.50;99.90;;;;;;5029780;28;20048;-75
2022/12/21 13:05:24;;;;;;;31.50;12.68;;;8.50;99.90;;;;;;5031111;28;20467;-74
2022/12/21 13:08:17;;;;;;;33.42;13.50;;;8.50;99.90;;;;;;5048021;28;20098;-74
2022/12/21 13:11:18;;;;;;;31.92;13.80;;;8.50;99.90;;;;;;5030923;28;20059;-75
2022/12/21 13:13:56;;;;;;;31.33;13.05;;;8.40;99.90;;;;;;5029146;28;20048;-74